Barstow, Texas
Current Conditions -  °F | °C
As of 6:15 PM on Tuesday 25 Nov 2014 (Local Time) from KPEQ Reporting Station
Clear Clear  
Wind Chill: 11°   Ceiling: Unl
Heat Index: 11°   Visibility: 10mi
Dew Point: -12°   Wind: 9mph
Humidity: 18%   Direction: 230°SW
Pressure: 30.2"   Gusts: NA
Location:  31.46°N, 103.39°W
Report Text: KPEQ 260015Z AUTO 23008KT 10SM CLR 12/M12 A3020 RMK AO2 T01151123
Loading
Personal Weather Stations






























Interactive Weather Map New forecast layout! Learn more

10-Day Weather Forecast

Advertisements
Track Severe Weather on mobile